createdAt,value
2017-07-20T00:02:07.955Z,100500.36
2017-07-20T00:04:40.226Z,100502.34
2017-07-20T00:07:12.554Z,100494.26
2017-07-20T00:09:44.882Z,100494.34
2017-07-20T00:12:17.086Z,100489.55
2017-07-20T00:14:49.365Z,100486.66
2017-07-20T00:17:21.673Z,100483.16
2017-07-20T00:19:54.050Z,100479.34
2017-07-20T00:22:26.477Z,100486.66
2017-07-20T00:24:58.678Z,100480.78
2017-07-20T00:27:31.005Z,100476.25
2017-07-20T00:30:03.421Z,100476.75
2017-07-20T00:32:35.749Z,100480.69
2017-07-20T00:35:08.158Z,100469.25
2017-07-20T00:37:40.402Z,100467.39
2017-07-20T00:40:12.870Z,100452.08
2017-07-20T00:42:45.129Z,100457.25
2017-07-20T00:45:17.572Z,100453.59
2017-07-20T00:47:50.088Z,100452.76
2017-07-20T00:50:22.217Z,100453.69
2017-07-20T00:52:54.754Z,100451.98
2017-07-20T00:55:27.107Z,100456.14
2017-07-20T00:57:59.662Z,100461.73
2017-07-20T01:00:31.941Z,100464.22
2017-07-20T01:03:04.327Z,100470.05
2017-07-20T01:05:36.762Z,100473.02
2017-07-20T01:08:09.237Z,100467.41
2017-07-20T01:10:41.618Z,100462.48
2017-07-20T01:13:14.042Z,100458.54
2017-07-20T01:15:46.445Z,100446.75
2017-07-20T01:18:18.981Z,100435.69
2017-07-20T01:20:52.403Z,100438.41
2017-07-20T01:23:24.836Z,100440.55
2017-07-20T01:25:57.185Z,100439.44
2017-07-20T01:28:29.470Z,100448.74
2017-07-20T01:31:01.866Z,100458.01
2017-07-20T01:33:34.151Z,100475.19
2017-07-20T01:36:06.570Z,100468.39
2017-07-20T01:38:38.963Z,100445.10
2017-07-20T01:41:11.249Z,100438.53
2017-07-20T01:43:43.502Z,100439.85
2017-07-20T01:46:15.962Z,100429.12
2017-07-20T01:48:48.116Z,100414.78
2017-07-20T01:51:20.526Z,100424.05
2017-07-20T01:53:52.813Z,100429.47
2017-07-20T01:56:25.594Z,100413.48
2017-07-20T01:58:58.002Z,100409.39
2017-07-20T02:01:30.097Z,100399.59
2017-07-20T02:04:02.369Z,100392.62
2017-07-20T02:06:34.646Z,100402.57
2017-07-20T02:09:06.924Z,100411.00
2017-07-20T02:11:39.198Z,100398.72
2017-07-20T02:14:11.558Z,100398.61
2017-07-20T02:16:43.721Z,100406.95
2017-07-20T02:19:16.123Z,100410.45
2017-07-20T02:21:48.645Z,100401.73
2017-07-20T02:24:20.722Z,100404.27
2017-07-20T02:26:53.109Z,100400.47
2017-07-20T02:29:25.461Z,100397.44
2017-07-20T02:31:57.757Z,100386.33
2017-07-20T02:34:30.137Z,100384.92
2017-07-20T02:37:02.517Z,100387.70
2017-07-20T02:39:34.748Z,100392.91
2017-07-20T02:42:07.051Z,100410.01
2017-07-20T02:44:39.390Z,100401.47
2017-07-20T02:47:11.795Z,100392.22
2017-07-20T02:49:44.160Z,100368.78
2017-07-20T02:52:16.650Z,100353.05
2017-07-20T02:54:49.107Z,100368.89
2017-07-20T02:57:21.362Z,100363.67
2017-07-20T02:59:54.150Z,100356.16
2017-07-20T03:02:26.121Z,100343.30
2017-07-20T03:04:58.521Z,100346.41
2017-07-20T03:07:30.846Z,100338.29
2017-07-20T03:10:03.573Z,100328.00
2017-07-20T03:12:35.496Z,100308.66
2017-07-20T03:15:07.818Z,100297.84
2017-07-20T03:17:40.311Z,100288.39
2017-07-20T03:20:12.737Z,100285.55
2017-07-20T03:22:45.077Z,100276.48
2017-07-20T03:25:17.520Z,100269.66
2017-07-20T03:27:49.920Z,100273.75
2017-07-20T03:30:22.134Z,100286.16
2017-07-20T03:32:54.522Z,100311.78
2017-07-20T03:35:26.878Z,100314.04
2017-07-20T03:37:59.285Z,100308.28
2017-07-20T03:40:31.582Z,100320.80
2017-07-20T03:43:04.037Z,100331.42
2017-07-20T03:45:36.285Z,100352.27
2017-07-20T03:48:08.633Z,100381.06
2017-07-20T03:50:40.797Z,100413.06
2017-07-20T03:53:13.207Z,100434.33
2017-07-20T03:55:45.592Z,100438.20
2017-07-20T03:58:18.032Z,100436.41
2017-07-20T04:00:50.346Z,100429.83
2017-07-20T04:03:22.864Z,100418.23
2017-07-20T04:05:55.255Z,100415.47
2017-07-20T04:08:27.614Z,100399.63
2017-07-20T04:10:59.963Z,100388.12
2017-07-20T04:13:32.354Z,100383.55
2017-07-20T04:16:04.837Z,100381.59
2017-07-20T04:18:37.272Z,100375.13
2017-07-20T04:21:09.532Z,100376.53
2017-07-20T04:23:41.942Z,100358.84
2017-07-20T04:26:14.438Z,100343.83
2017-07-20T04:28:46.933Z,100339.13
2017-07-20T04:31:19.297Z,100323.72
2017-07-20T04:33:51.713Z,100309.92
2017-07-20T04:36:24.057Z,100297.80
2017-07-20T04:38:56.516Z,100306.88
2017-07-20T04:41:28.968Z,100316.33
2017-07-20T04:44:01.466Z,100313.52
2017-07-20T04:46:33.917Z,100295.75
2017-07-20T04:49:06.402Z,100299.30
2017-07-20T04:51:38.825Z,100303.11
2017-07-20T04:54:11.208Z,100294.84
2017-07-20T04:56:43.478Z,100288.86
2017-07-20T04:59:15.827Z,100273.80
2017-07-20T05:01:48.284Z,100284.98
2017-07-20T05:04:20.577Z,100300.71
2017-07-20T05:06:52.941Z,100283.90
2017-07-20T05:09:25.316Z,100276.89
2017-07-20T05:11:57.746Z,100271.44
2017-07-20T05:14:30.037Z,100269.20
2017-07-20T05:17:02.349Z,100263.29
2017-07-20T05:19:34.664Z,100262.02
2017-07-20T05:22:07.196Z,100266.59
2017-07-20T05:24:39.505Z,100264.33
2017-07-20T05:27:11.938Z,100288.64
2017-07-20T05:29:44.385Z,100298.11
2017-07-20T05:32:16.794Z,100305.23
2017-07-20T05:34:49.203Z,100310.97
2017-07-20T05:37:21.802Z,100311.20
2017-07-20T05:39:54.047Z,100324.95
2017-07-20T05:42:26.398Z,100322.27
2017-07-20T05:44:58.777Z,100318.21
2017-07-20T05:47:31.168Z,100328.78
2017-07-20T05:50:03.670Z,100326.19
2017-07-20T05:52:36.150Z,100341.98
2017-07-20T05:55:08.939Z,100346.44
2017-07-20T05:57:41.138Z,100346.58
2017-07-20T06:00:13.685Z,100373.83
2017-07-20T06:02:46.118Z,100373.64
2017-07-20T06:05:18.542Z,100366.23
2017-07-20T06:07:50.949Z,100390.52
2017-07-20T06:10:23.426Z,100388.33
2017-07-20T06:12:55.846Z,100418.33
2017-07-20T06:15:28.238Z,100448.16
2017-07-20T06:18:00.650Z,100436.42
2017-07-20T06:20:33.294Z,100466.58
2017-07-20T06:23:05.549Z,100462.38
2017-07-20T06:25:37.906Z,100472.38
2017-07-20T06:28:10.331Z,100479.20
2017-07-20T06:30:42.706Z,100479.06
2017-07-20T06:33:15.200Z,100468.97
2017-07-20T06:35:47.616Z,100476.03
2017-07-20T06:38:20.015Z,100465.17
2017-07-20T06:40:52.777Z,100460.13
2017-07-20T06:43:24.797Z,100452.23
2017-07-20T06:45:57.217Z,100453.42
2017-07-20T06:48:29.856Z,100444.25
2017-07-20T06:51:02.322Z,100445.44
2017-07-20T06:53:34.738Z,100438.61
2017-07-20T06:56:07.058Z,100438.89
2017-07-20T06:58:39.633Z,100436.83
2017-07-20T07:01:11.997Z,100443.15
2017-07-20T07:03:44.372Z,100438.75
2017-07-20T07:06:16.770Z,100432.94
2017-07-20T07:08:49.121Z,100436.01
2017-07-20T07:11:21.650Z,100431.11
2017-07-20T07:13:54.674Z,100428.03
2017-07-20T07:16:27.458Z,100426.63
2017-07-20T07:18:59.801Z,100434.15
2017-07-20T07:21:32.197Z,100432.47
2017-07-20T07:24:04.713Z,100429.27
2017-07-20T07:26:37.041Z,100420.72
2017-07-20T07:29:09.430Z,100414.69
2017-07-20T07:31:41.757Z,100414.09
2017-07-20T07:34:14.102Z,100423.36
2017-07-20T07:36:46.458Z,100420.39
2017-07-20T07:39:19.125Z,100422.47
2017-07-20T07:41:51.553Z,100431.80
2017-07-20T07:44:23.964Z,100432.77
2017-07-20T07:46:56.445Z,100430.39
2017-07-20T07:49:28.737Z,100421.75
2017-07-20T07:52:01.169Z,100426.50
2017-07-20T07:54:33.665Z,100428.17
2017-07-20T07:57:06.017Z,100419.05
2017-07-20T07:59:38.705Z,100430.64
2017-07-20T08:02:10.775Z,100424.07
2017-07-20T08:04:44.284Z,100408.52
2017-07-20T08:07:16.851Z,100401.38
2017-07-20T08:09:49.150Z,100402.89
2017-07-20T08:12:21.693Z,100400.63
2017-07-20T08:14:54.298Z,100399.36
2017-07-20T08:17:26.653Z,100402.03
2017-07-20T08:19:59.086Z,100394.70
2017-07-20T08:22:31.341Z,100403.50
2017-07-20T08:25:03.798Z,100408.17
2017-07-20T08:27:36.574Z,100410.42
2017-07-20T08:30:09.153Z,100414.83
2017-07-20T08:32:41.621Z,100412.16
2017-07-20T08:35:14.017Z,100417.38
2017-07-20T08:37:46.373Z,100420.52
2017-07-20T08:40:18.873Z,100433.08
2017-07-20T08:42:51.221Z,100431.55
2017-07-20T08:45:23.635Z,100421.49
2017-07-20T08:47:56.154Z,100426.72
2017-07-20T08:50:28.798Z,100430.45
2017-07-20T08:53:01.174Z,100434.53
2017-07-20T08:55:33.635Z,100437.56
2017-07-20T08:58:06.114Z,100443.92
2017-07-20T09:00:38.589Z,100439.30
2017-07-20T09:03:11.241Z,100441.48
2017-07-20T09:05:43.503Z,100441.50
2017-07-20T09:08:16.061Z,100442.41
2017-07-20T09:10:48.425Z,100451.75
2017-07-20T09:13:20.721Z,100454.45
2017-07-20T09:15:53.193Z,100452.52
2017-07-20T09:18:25.669Z,100445.77
2017-07-20T09:20:58.088Z,100444.42
2017-07-20T09:23:30.500Z,100444.36
2017-07-20T09:26:02.854Z,100438.61
2017-07-20T09:28:35.295Z,100446.40
2017-07-20T09:31:07.735Z,100442.55
2017-07-20T09:33:40.301Z,100442.27
2017-07-20T09:36:12.534Z,100437.64
2017-07-20T09:38:45.022Z,100436.46
2017-07-20T09:41:17.457Z,100439.59
2017-07-20T09:43:49.824Z,100437.80
2017-07-20T09:46:22.287Z,100448.10
2017-07-20T09:48:54.841Z,100443.87
2017-07-20T09:51:27.190Z,100450.77
2017-07-20T09:53:59.613Z,100449.26
2017-07-20T09:56:32.202Z,100448.39
2017-07-20T09:59:04.753Z,100451.33
2017-07-20T10:01:37.130Z,100454.67
2017-07-20T10:04:09.556Z,100455.23
2017-07-20T10:06:42.190Z,100460.45
2017-07-20T10:09:14.325Z,100451.45
2017-07-20T10:11:46.760Z,100462.39
2017-07-20T10:14:19.125Z,100459.38
2017-07-20T10:16:51.429Z,100459.00
2017-07-20T10:19:23.790Z,100466.36
2017-07-20T10:21:56.061Z,100469.02
2017-07-20T10:24:28.398Z,100455.22
2017-07-20T10:27:00.805Z,100452.73
2017-07-20T10:29:33.260Z,100448.27
2017-07-20T10:32:05.702Z,100444.42
2017-07-20T10:34:37.911Z,100446.17
2017-07-20T10:37:10.309Z,100440.37
2017-07-20T10:39:42.684Z,100437.20
2017-07-20T10:42:15.257Z,100430.84
2017-07-20T10:44:47.801Z,100427.11
2017-07-20T10:47:20.368Z,100434.95
2017-07-20T10:49:52.678Z,100430.84
2017-07-20T10:52:25.222Z,100431.92
2017-07-20T10:54:57.590Z,100433.29
2017-07-20T10:57:30.664Z,100412.55
2017-07-20T11:00:03.708Z,100419.85
2017-07-20T11:02:35.751Z,100417.53
2017-07-20T11:05:08.125Z,100418.62
2017-07-20T11:07:40.597Z,100419.37
2017-07-20T11:10:12.966Z,100419.06
2017-07-20T11:12:45.300Z,100417.47
2017-07-20T11:15:17.706Z,100412.86
2017-07-20T11:17:50.173Z,100414.56
2017-07-20T11:20:22.434Z,100414.92
2017-07-20T11:22:54.854Z,100406.56
2017-07-20T11:25:27.277Z,100414.88
2017-07-20T11:27:59.537Z,100421.20
2017-07-20T11:30:31.958Z,100412.91
2017-07-20T11:33:04.243Z,100411.53
2017-07-20T11:35:36.672Z,100414.92
2017-07-20T11:38:09.482Z,100412.79
2017-07-20T11:40:41.632Z,100404.80
2017-07-20T11:43:13.861Z,100411.23
2017-07-20T11:45:46.214Z,100409.28
2017-07-20T11:48:18.688Z,100408.44
2017-07-20T11:50:50.838Z,100409.75
2017-07-20T11:53:23.343Z,100409.28
2017-07-20T11:55:55.798Z,100404.70
2017-07-20T11:58:28.153Z,100408.44
2017-07-20T12:01:00.594Z,100403.84
2017-07-20T12:03:32.968Z,100398.86
2017-07-20T12:06:05.585Z,100396.64
2017-07-20T12:08:37.616Z,100388.41
2017-07-20T12:11:09.928Z,100384.31
2017-07-20T12:13:42.334Z,100391.19
2017-07-20T12:16:14.638Z,100381.59
2017-07-20T12:18:47.049Z,100382.17
2017-07-20T12:21:19.344Z,100385.04
2017-07-20T12:23:51.854Z,100380.28
2017-07-20T12:26:24.413Z,100377.55
2017-07-20T12:28:56.367Z,100377.72
2017-07-20T12:31:28.701Z,100373.05
2017-07-20T12:34:01.089Z,100383.10
2017-07-20T12:36:33.453Z,100386.07
2017-07-20T12:39:05.841Z,100376.26
2017-07-20T12:41:38.225Z,100379.44
2017-07-20T12:44:10.598Z,100376.13
2017-07-20T12:46:42.939Z,100364.89
2017-07-20T12:49:15.347Z,100370.66
2017-07-20T12:51:47.676Z,100364.33
2017-07-20T12:54:20.104Z,100364.12
2017-07-20T12:56:52.380Z,100371.86
2017-07-20T12:59:24.813Z,100360.88
2017-07-20T13:01:57.096Z,100361.59
2017-07-20T13:04:29.493Z,100363.08
2017-07-20T13:07:01.807Z,100361.56
2017-07-20T13:09:34.308Z,100362.72
2017-07-20T13:12:06.586Z,100364.29
2017-07-20T13:14:39.082Z,100363.79
2017-07-20T13:17:11.469Z,100361.83
2017-07-20T13:19:44.205Z,100357.66
2017-07-20T13:22:16.200Z,100362.42
2017-07-20T13:24:48.583Z,100358.26
2017-07-20T13:27:21.032Z,100359.13
2017-07-20T13:29:53.446Z,100345.36
2017-07-20T13:32:25.862Z,100348.50
2017-07-20T13:34:58.377Z,100351.16
2017-07-20T13:37:30.601Z,100345.87
2017-07-20T13:40:02.861Z,100350.06
2017-07-20T13:42:35.113Z,100352.99
2017-07-20T13:45:07.450Z,100347.83
2017-07-20T13:47:39.785Z,100348.39
2017-07-20T13:50:12.209Z,100356.34
2017-07-20T13:52:44.546Z,100356.88
2017-07-20T13:55:16.926Z,100348.14
2017-07-20T13:57:49.136Z,100335.94
2017-07-20T14:00:21.594Z,100333.44
2017-07-20T14:02:53.929Z,100337.08
2017-07-20T14:05:26.413Z,100335.13
2017-07-20T14:07:58.792Z,100340.33
2017-07-20T14:10:31.164Z,100353.52
2017-07-20T14:13:03.554Z,100355.37
2017-07-20T14:15:35.864Z,100343.03
2017-07-20T14:18:08.278Z,100343.06
2017-07-20T14:20:40.830Z,100339.77
2017-07-20T14:23:13.153Z,100342.16
2017-07-20T14:25:45.524Z,100338.17
2017-07-20T14:28:17.929Z,100351.97
2017-07-20T14:30:50.294Z,100339.67
2017-07-20T14:33:22.725Z,100340.97
2017-07-20T14:35:55.158Z,100342.78
2017-07-20T14:38:27.424Z,100337.27
2017-07-20T14:40:59.868Z,100339.30
2017-07-20T14:43:32.632Z,100337.87
2017-07-20T14:46:04.818Z,100329.72
2017-07-20T14:48:37.267Z,100338.13
2017-07-20T14:51:09.689Z,100347.41
2017-07-20T14:53:42.034Z,100338.19
2017-07-20T14:56:14.473Z,100344.63
2017-07-20T14:58:46.886Z,100338.28
2017-07-20T15:01:19.376Z,100338.00
2017-07-20T15:03:51.826Z,100339.53
2017-07-20T15:06:24.414Z,100346.81
2017-07-20T15:08:56.773Z,100350.10
2017-07-20T15:11:29.078Z,100392.42
2017-07-20T15:14:01.475Z,100389.13
2017-07-20T15:16:33.725Z,100396.95
2017-07-20T15:19:06.277Z,100410.79
2017-07-20T15:21:38.492Z,100420.90
2017-07-20T15:24:10.841Z,100413.70
2017-07-20T15:26:43.223Z,100404.98
2017-07-20T15:29:15.688Z,100406.63
2017-07-20T15:31:56.812Z,100407.16
2017-07-20T15:34:29.330Z,100393.94
2017-07-20T15:37:01.594Z,100382.48
2017-07-20T15:39:33.926Z,100373.55
2017-07-20T15:42:06.463Z,100372.05
2017-07-20T15:44:38.878Z,100369.61
2017-07-20T15:47:11.488Z,100367.77
2017-07-20T15:49:43.862Z,100373.16
2017-07-20T15:52:15.981Z,100372.73
2017-07-20T15:54:48.375Z,100372.23
2017-07-20T15:57:20.842Z,100380.66
2017-07-20T15:59:53.033Z,100384.08
2017-07-20T16:02:25.474Z,100390.64
2017-07-20T16:04:57.680Z,100400.38
2017-07-20T16:07:30.112Z,100394.30
2017-07-20T16:10:02.538Z,100401.00
2017-07-20T16:12:34.928Z,100409.45
2017-07-20T16:15:07.482Z,100408.48
2017-07-20T16:17:39.892Z,100410.47
2017-07-20T16:20:12.114Z,100413.11
2017-07-20T16:22:44.550Z,100407.28
2017-07-20T16:25:16.893Z,100410.33
2017-07-20T16:27:49.389Z,100407.67
2017-07-20T16:30:21.763Z,100407.03
2017-07-20T16:32:54.054Z,100401.40
2017-07-20T16:35:26.684Z,100406.78
2017-07-20T16:37:59.897Z,100400.30
2017-07-20T16:40:32.345Z,100400.25
2017-07-20T16:43:05.821Z,100400.92
2017-07-20T16:45:38.234Z,100398.23
2017-07-20T16:48:10.632Z,100390.14
2017-07-20T16:50:42.975Z,100390.08
2017-07-20T16:53:15.487Z,100387.67
2017-07-20T16:55:47.747Z,100386.45
2017-07-20T16:58:20.100Z,100394.33
2017-07-20T17:00:52.449Z,100387.70
2017-07-20T17:03:24.978Z,100389.29
2017-07-20T17:05:57.325Z,100390.55
2017-07-20T17:08:29.814Z,100388.63
2017-07-20T17:11:02.289Z,100388.41
2017-07-20T17:13:34.722Z,100396.77
2017-07-20T17:16:07.130Z,100392.77
2017-07-20T17:18:39.649Z,100396.50
2017-07-20T17:21:12.094Z,100393.48
2017-07-20T17:23:44.596Z,100388.31
2017-07-20T17:26:16.935Z,100393.72
2017-07-20T17:28:49.238Z,100392.86
2017-07-20T17:31:21.603Z,100391.48
2017-07-20T17:33:54.145Z,100396.01
2017-07-20T17:36:26.609Z,100395.94
2017-07-20T17:38:58.936Z,100389.36
2017-07-20T17:41:31.162Z,100397.83
2017-07-20T17:44:03.566Z,100402.42
2017-07-20T17:46:35.793Z,100407.59
2017-07-20T17:49:08.218Z,100399.67
2017-07-20T17:51:40.746Z,100406.28
2017-07-20T17:54:13.058Z,100406.63
2017-07-20T17:56:45.283Z,100402.58
2017-07-20T17:59:17.746Z,100406.63
2017-07-20T18:01:50.098Z,100401.34
2017-07-20T18:04:22.589Z,100404.30
2017-07-20T18:06:55.041Z,100413.67
2017-07-20T18:09:27.392Z,100413.36
2017-07-20T18:11:59.741Z,100418.56
2017-07-20T18:14:33.128Z,100419.41
2017-07-20T18:17:05.721Z,100422.72
2017-07-20T18:19:38.217Z,100431.03
2017-07-20T18:22:10.949Z,100428.14
2017-07-20T18:24:43.169Z,100432.63
2017-07-20T18:27:15.642Z,100442.91
2017-07-20T18:29:47.950Z,100438.28
2017-07-20T18:32:20.370Z,100436.91
2017-07-20T18:34:52.730Z,100449.83
2017-07-20T18:37:25.030Z,100444.20
2017-07-20T18:39:57.514Z,100462.53
2017-07-20T18:42:29.874Z,100459.77
2017-07-20T18:45:02.405Z,100457.13
2017-07-20T18:47:34.789Z,100454.05
2017-07-20T18:50:07.215Z,100456.59
2017-07-20T18:52:39.641Z,100463.59
2017-07-20T18:55:12.070Z,100472.88
2017-07-20T18:57:44.459Z,100474.88
2017-07-20T19:00:17.376Z,100481.12
2017-07-20T19:02:49.269Z,100483.09
2017-07-20T19:05:21.638Z,100486.40
2017-07-20T19:07:54.057Z,100490.94
2017-07-20T19:10:26.577Z,100497.03
2017-07-20T19:12:58.762Z,100498.78
2017-07-20T19:15:31.182Z,100498.53
2017-07-20T19:18:03.489Z,100513.40
2017-07-20T19:20:35.914Z,100509.92
2017-07-20T19:23:08.265Z,100514.83
2017-07-20T19:25:40.646Z,100522.30
2017-07-20T19:28:12.923Z,100521.70
2017-07-20T19:30:45.309Z,100523.89
2017-07-20T19:33:17.577Z,100532.41
2017-07-20T19:35:49.973Z,100538.94
2017-07-20T19:38:22.155Z,100539.97
2017-07-20T19:40:55.062Z,100545.45
2017-07-20T19:43:27.109Z,100540.52
2017-07-20T19:45:59.570Z,100547.05
2017-07-20T19:48:31.825Z,100548.69
2017-07-20T19:51:04.181Z,100552.08
2017-07-20T19:53:36.419Z,100551.35
2017-07-20T19:56:08.817Z,100560.89
2017-07-20T19:58:41.108Z,100564.20
2017-07-20T20:01:13.448Z,100571.79
2017-07-20T20:03:45.729Z,100571.56
2017-07-20T20:06:18.204Z,100571.45
2017-07-20T20:08:50.481Z,100568.83
2017-07-20T20:11:22.878Z,100568.48
2017-07-20T20:13:55.326Z,100572.87
2017-07-20T20:16:27.644Z,100574.94
2017-07-20T20:31:56.519Z,100586.47
2017-07-20T20:34:28.581Z,100588.41
2017-07-20T20:37:00.994Z,100592.81
2017-07-20T20:39:33.312Z,100597.02
2017-07-20T20:42:06.697Z,100598.00
2017-07-20T20:44:39.605Z,100610.81
2017-07-20T20:47:11.530Z,100617.58
2017-07-20T20:49:44.037Z,100629.52
2017-07-20T20:52:18.473Z,100636.04
2017-07-20T20:54:51.089Z,100644.40
2017-07-20T20:57:23.137Z,100628.66
2017-07-20T20:59:55.481Z,100656.70
2017-07-20T21:02:27.896Z,100661.62
2017-07-20T21:05:00.288Z,100670.40
2017-07-20T21:07:32.654Z,100678.47
2017-07-20T21:10:05.052Z,100684.42
2017-07-20T21:12:37.494Z,100694.52
2017-07-20T21:15:10.024Z,100696.04
2017-07-20T21:17:42.442Z,100701.30
2017-07-20T21:20:14.833Z,100704.12
2017-07-20T21:22:47.239Z,100703.95
2017-07-20T21:25:19.621Z,100701.66
2017-07-20T21:27:51.965Z,100705.59
2017-07-20T21:30:24.450Z,100708.16
2017-07-20T21:32:56.604Z,100718.83
2017-07-20T21:35:28.969Z,100730.64
2017-07-20T21:38:01.300Z,100735.34
2017-07-20T21:40:33.746Z,100727.52
2017-07-20T21:43:06.181Z,100733.36
2017-07-20T21:45:38.866Z,100733.44
2017-07-20T21:48:10.827Z,100738.77
2017-07-20T21:50:43.257Z,100738.39
2017-07-20T21:53:15.525Z,100742.59
2017-07-20T21:55:47.974Z,100759.02
2017-07-20T21:58:20.239Z,100755.73
2017-07-20T22:00:53.114Z,100763.52
2017-07-20T22:03:25.169Z,100769.94
2017-07-20T22:05:57.549Z,100762.39
2017-07-20T22:08:29.916Z,100767.27
2017-07-20T22:11:02.489Z,100771.33
2017-07-20T22:13:34.641Z,100769.17
2017-07-20T22:16:07.174Z,100772.65
2017-07-20T22:18:39.514Z,100769.76
2017-07-20T22:21:11.918Z,100773.05
2017-07-20T22:23:44.372Z,100779.70
2017-07-20T22:26:16.853Z,100783.72
2017-07-20T22:28:49.236Z,100785.52
2017-07-20T22:31:21.649Z,100785.27
2017-07-20T22:33:54.058Z,100790.23
2017-07-20T22:36:26.452Z,100797.66
2017-07-20T22:38:58.882Z,100805.37
2017-07-20T22:41:31.289Z,100801.04
2017-07-20T22:44:03.654Z,100805.48
2017-07-20T22:46:36.092Z,100808.94
2017-07-20T22:49:08.693Z,100814.69
2017-07-20T22:51:41.085Z,100808.38
2017-07-20T22:54:13.456Z,100810.33
2017-07-20T22:56:45.768Z,100808.36
2017-07-20T22:59:18.092Z,100813.84
2017-07-20T23:01:50.437Z,100820.31
2017-07-20T23:04:22.829Z,100827.22
2017-07-20T23:06:55.265Z,100833.72
2017-07-20T23:09:27.626Z,100833.81
2017-07-20T23:12:00.021Z,100841.89
2017-07-20T23:14:32.346Z,100833.44
2017-07-20T23:17:04.830Z,100833.36
2017-07-20T23:19:37.194Z,100830.90
2017-07-20T23:22:09.600Z,100828.34
2017-07-20T23:24:41.941Z,100830.12
2017-07-20T23:27:14.409Z,100836.03
2017-07-20T23:29:46.730Z,100837.65
2017-07-20T23:32:19.237Z,100844.38
2017-07-20T23:34:51.538Z,100844.97
2017-07-20T23:37:23.925Z,100852.81
2017-07-20T23:39:56.182Z,100852.19
2017-07-20T23:42:29.569Z,100858.41
2017-07-20T23:45:02.065Z,100852.27
2017-07-20T23:47:34.470Z,100854.91
2017-07-20T23:50:06.892Z,100863.17
2017-07-20T23:52:39.360Z,100861.38
2017-07-20T23:55:11.678Z,100866.80
2017-07-20T23:57:43.937Z,100875.24
